createdAt,value
2023-05-05T00:00:02.122Z,100.00
2023-05-05T00:02:29.086Z,100.00
2023-05-05T00:04:56.121Z,100.00
2023-05-05T00:07:23.166Z,100.00
2023-05-05T00:09:49.965Z,100.00
2023-05-05T00:12:16.992Z,100.00
2023-05-05T00:14:44.004Z,100.00
2023-05-05T00:17:11.043Z,100.00
2023-05-05T00:19:41.508Z,100.00
2023-05-05T00:22:08.552Z,100.00
2023-05-05T00:24:36.022Z,100.00
2023-05-05T00:27:03.563Z,100.00
2023-05-05T00:29:30.681Z,100.00
2023-05-05T00:31:57.543Z,100.00
2023-05-05T00:34:24.571Z,100.00
2023-05-05T00:36:51.472Z,100.00
2023-05-05T00:39:18.287Z,100.00
2023-05-05T00:41:45.343Z,100.00
2023-05-05T00:44:12.475Z,100.00
2023-05-05T00:46:41.714Z,100.00
2023-05-05T00:49:10.117Z,100.00
2023-05-05T00:51:37.217Z,100.00
2023-05-05T00:54:07.413Z,100.00
2023-05-05T00:56:34.352Z,100.00
2023-05-05T00:59:02.763Z,100.00
2023-05-05T01:01:32.947Z,100.00
2023-05-05T01:04:00.023Z,100.00
2023-05-05T01:06:36.765Z,100.00
2023-05-05T01:09:22.274Z,100.00
2023-05-05T01:12:34.864Z,100.00
2023-05-05T01:15:04.487Z,100.00
2023-05-05T01:17:42.730Z,100.00
2023-05-05T01:20:33.523Z,100.00
2023-05-05T01:23:07.330Z,100.00
2023-05-05T01:25:40.076Z,100.00
2023-05-05T01:28:20.761Z,100.00
2023-05-05T01:31:09.542Z,100.00
2023-05-05T01:33:46.490Z,100.00
2023-05-05T01:36:22.929Z,100.00
2023-05-05T01:38:57.709Z,100.00
2023-05-05T01:41:33.182Z,100.00
2023-05-05T01:44:06.015Z,100.00
2023-05-05T01:46:35.498Z,100.00
2023-05-05T01:49:03.006Z,100.00
2023-05-05T01:51:34.363Z,100.00
2023-05-05T01:54:08.170Z,100.00
2023-05-05T01:56:38.751Z,100.00
2023-05-05T01:59:07.295Z,100.00
2023-05-05T02:01:39.425Z,100.00
2023-05-05T02:04:09.907Z,100.00
2023-05-05T02:06:40.272Z,100.00
2023-05-05T02:09:12.409Z,100.00
2023-05-05T02:11:40.636Z,100.00
2023-05-05T02:14:09.306Z,100.00
2023-05-05T02:16:38.126Z,100.00
2023-05-05T02:19:05.963Z,100.00
2023-05-05T02:21:34.320Z,100.00
2023-05-05T02:24:02.617Z,100.00
2023-05-05T02:26:34.078Z,100.00
2023-05-05T02:29:08.176Z,100.00
2023-05-05T02:31:42.343Z,100.00
2023-05-05T02:34:11.377Z,100.00
2023-05-05T02:36:41.225Z,100.00
2023-05-05T02:39:21.688Z,100.00
2023-05-05T02:41:51.354Z,100.00
2023-05-05T02:44:27.560Z,100.00
2023-05-05T02:46:55.115Z,100.00
2023-05-05T02:49:23.217Z,100.00
2023-05-05T02:51:51.219Z,100.00
2023-05-05T02:54:24.272Z,100.00
2023-05-05T02:56:56.832Z,100.00
2023-05-05T02:59:30.201Z,100.00
2023-05-05T03:02:39.436Z,100.00
2023-05-05T03:05:13.480Z,100.00
2023-05-05T03:08:16.257Z,100.00
2023-05-05T03:10:51.721Z,100.00
2023-05-05T03:13:23.234Z,100.00
2023-05-05T03:15:53.180Z,100.00
2023-05-05T03:18:25.422Z,100.00
2023-05-05T03:21:08.831Z,100.00
2023-05-05T03:23:39.088Z,100.00
2023-05-05T03:26:11.595Z,100.00
2023-05-05T03:28:42.197Z,100.00
2023-05-05T03:31:18.470Z,100.00
2023-05-05T03:33:50.398Z,100.00
2023-05-05T03:36:20.267Z,100.00
2023-05-05T03:38:47.594Z,100.00
2023-05-05T03:41:15.100Z,100.00
2023-05-05T03:43:42.248Z,100.00
2023-05-05T03:46:10.368Z,100.00
2023-05-05T03:48:37.920Z,100.00
2023-05-05T03:51:04.901Z,100.00
2023-05-05T03:53:34.037Z,100.00
2023-05-05T03:56:04.420Z,100.00
2023-05-05T03:58:31.659Z,100.00
2023-05-05T04:00:58.585Z,100.00
2023-05-05T04:03:26.086Z,100.00
2023-05-05T04:05:53.464Z,100.00
2023-05-05T04:08:21.425Z,100.00
2023-05-05T04:10:48.319Z,100.00
2023-05-05T04:13:15.765Z,100.00
2023-05-05T04:15:46.833Z,100.00
2023-05-05T04:18:15.019Z,100.00
2023-05-05T04:20:42.198Z,100.00
2023-05-05T04:23:10.647Z,100.00
2023-05-05T04:25:38.136Z,100.00
2023-05-05T04:28:05.731Z,100.00
2023-05-05T04:30:33.639Z,100.00
2023-05-05T04:33:01.012Z,100.00
2023-05-05T04:35:28.214Z,100.00
2023-05-05T04:37:55.190Z,100.00
2023-05-05T04:40:22.952Z,100.00
2023-05-05T04:42:51.372Z,100.00
2023-05-05T04:45:18.183Z,100.00
2023-05-05T04:47:45.449Z,100.00
2023-05-05T04:50:12.576Z,100.00
2023-05-05T04:52:52.772Z,100.00
2023-05-05T04:55:20.390Z,100.00
2023-05-05T05:00:29.134Z,100.00
2023-05-05T05:02:56.199Z,100.00
2023-05-05T05:05:23.408Z,100.00
2023-05-05T05:07:50.756Z,100.00
2023-05-05T05:10:18.280Z,100.00
2023-05-05T05:12:48.214Z,100.00
2023-05-05T05:15:15.474Z,100.00
2023-05-05T05:17:42.524Z,100.00
2023-05-05T05:20:10.094Z,100.00
2023-05-05T05:22:38.839Z,100.00
2023-05-05T05:25:10.003Z,100.00
2023-05-05T05:27:37.348Z,100.00
2023-05-05T05:30:04.820Z,100.00
2023-05-05T05:32:33.414Z,100.00
2023-05-05T05:35:01.295Z,100.00
2023-05-05T05:37:31.583Z,100.00
2023-05-05T05:39:59.367Z,100.00
2023-05-05T05:42:28.471Z,100.00
2023-05-05T05:44:55.741Z,100.00
2023-05-05T05:47:23.827Z,100.00
2023-05-05T05:49:51.100Z,100.00
2023-05-05T05:52:19.676Z,100.00
2023-05-05T05:54:46.666Z,100.00
2023-05-05T05:57:13.525Z,100.00
2023-05-05T05:59:40.500Z,100.00
2023-05-05T06:02:08.033Z,100.00
2023-05-05T06:04:35.446Z,100.00
2023-05-05T06:07:02.452Z,100.00
2023-05-05T06:09:29.669Z,100.00
2023-05-05T06:11:56.632Z,100.00
2023-05-05T06:14:23.576Z,100.00
2023-05-05T06:16:52.297Z,100.00
2023-05-05T06:19:21.736Z,100.00
2023-05-05T06:21:49.315Z,100.00
2023-05-05T06:24:16.208Z,100.00
2023-05-05T06:26:43.485Z,100.00
2023-05-05T06:29:12.196Z,100.00
2023-05-05T06:31:39.471Z,100.00
2023-05-05T06:34:06.341Z,100.00
2023-05-05T06:36:33.476Z,100.00
2023-05-05T06:39:00.567Z,100.00
2023-05-05T06:41:27.690Z,100.00
2023-05-05T06:43:54.471Z,100.00
2023-05-05T06:46:21.554Z,100.00
2023-05-05T06:48:48.573Z,100.00
2023-05-05T06:51:16.334Z,100.00
2023-05-05T06:53:43.123Z,100.00
2023-05-05T06:56:11.456Z,100.00
2023-05-05T06:58:38.495Z,100.00
2023-05-05T07:01:05.883Z,100.00
2023-05-05T07:03:32.998Z,100.00
2023-05-05T07:05:59.960Z,100.00
2023-05-05T07:08:26.867Z,100.00
2023-05-05T07:10:53.900Z,100.00
2023-05-05T07:13:21.038Z,100.00
2023-05-05T07:15:48.047Z,100.00
2023-05-05T07:18:16.492Z,100.00
2023-05-05T07:20:46.590Z,100.00
2023-05-05T07:23:13.634Z,100.00
2023-05-05T07:25:40.784Z,100.00
2023-05-05T07:28:07.947Z,100.00
2023-05-05T07:30:34.941Z,100.00
2023-05-05T07:33:02.031Z,100.00
2023-05-05T07:35:29.009Z,100.00
2023-05-05T07:37:56.018Z,100.00
2023-05-05T07:40:22.971Z,100.00
2023-05-05T07:42:50.150Z,100.00
2023-05-05T07:45:17.007Z,100.00
2023-05-05T07:47:44.381Z,100.00
2023-05-05T07:50:11.694Z,100.00
2023-05-05T07:52:48.446Z,100.00
2023-05-05T07:55:20.961Z,100.00
2023-05-05T07:57:48.305Z,100.00
2023-05-05T08:00:15.680Z,100.00
2023-05-05T08:02:44.229Z,100.00
2023-05-05T08:05:12.086Z,100.00
2023-05-05T08:07:41.613Z,100.00
2023-05-05T08:10:11.461Z,100.00
2023-05-05T08:12:39.238Z,100.00
2023-05-05T08:15:07.070Z,98.95
2023-05-05T08:17:55.883Z,99.86
2023-05-05T08:20:23.068Z,100.00
2023-05-05T08:22:50.363Z,98.50
2023-05-05T08:25:17.226Z,99.72
2023-05-05T08:27:45.134Z,99.49
2023-05-05T08:30:12.847Z,98.06
2023-05-05T08:32:39.771Z,98.48
2023-05-05T08:35:07.597Z,99.85
2023-05-05T08:37:35.062Z,100.00
2023-05-05T08:40:02.015Z,100.00
2023-05-05T08:42:38.049Z,100.00
2023-05-05T08:45:10.646Z,100.00
2023-05-05T08:47:39.499Z,100.00
2023-05-05T08:50:09.934Z,100.00
2023-05-05T08:52:42.104Z,100.00
2023-05-05T08:55:26.610Z,100.00
2023-05-05T08:57:57.559Z,100.00
2023-05-05T09:00:24.660Z,100.00
2023-05-05T09:02:52.709Z,100.00
2023-05-05T09:05:19.588Z,100.00
2023-05-05T09:07:47.603Z,100.00
2023-05-05T09:10:14.745Z,100.00
2023-05-05T09:12:42.192Z,100.00
2023-05-05T09:15:11.915Z,99.17
2023-05-05T09:17:39.744Z,97.20
2023-05-05T09:20:14.771Z,95.42
2023-05-05T09:22:43.615Z,95.77
2023-05-05T09:25:15.685Z,92.64
2023-05-05T09:27:48.174Z,92.17
2023-05-05T09:30:24.380Z,92.00
2023-05-05T09:32:54.447Z,90.39
2023-05-05T09:35:23.349Z,90.48
2023-05-05T09:37:50.851Z,91.29
2023-05-05T09:40:22.303Z,91.13
2023-05-05T09:43:02.872Z,90.02
2023-05-05T09:45:32.049Z,89.88
2023-05-05T09:48:00.533Z,87.80
2023-05-05T09:50:30.957Z,88.46
2023-05-05T09:53:00.900Z,88.36
2023-05-05T09:55:33.834Z,90.23
2023-05-05T09:58:24.381Z,89.80
2023-05-05T10:00:52.007Z,89.42
2023-05-05T10:03:19.306Z,90.00
2023-05-05T10:05:52.134Z,90.35
2023-05-05T10:08:21.149Z,92.31
2023-05-05T10:10:52.359Z,93.07
2023-05-05T10:13:21.190Z,94.57
2023-05-05T10:15:53.963Z,94.47
2023-05-05T10:18:25.942Z,94.91
2023-05-05T10:20:58.628Z,94.59
2023-05-05T10:23:39.831Z,93.90
2023-05-05T10:26:08.180Z,92.50
2023-05-05T10:28:43.528Z,91.59
2023-05-05T10:31:37.541Z,91.08
2023-05-05T10:34:09.893Z,91.11
2023-05-05T10:36:39.280Z,89.88
2023-05-05T10:39:10.929Z,89.10
2023-05-05T10:41:39.027Z,89.85
2023-05-05T10:44:06.813Z,90.87
2023-05-05T10:46:34.105Z,88.98
2023-05-05T10:49:22.474Z,88.49
2023-05-05T10:52:14.264Z,88.77
2023-05-05T10:54:54.621Z,88.30
2023-05-05T10:57:26.305Z,86.91
2023-05-05T10:59:53.162Z,86.81
2023-05-05T11:02:28.173Z,86.22
2023-05-05T11:05:15.263Z,84.84
2023-05-05T11:07:44.050Z,84.10
2023-05-05T11:10:12.981Z,82.85
2023-05-05T11:12:52.132Z,83.32
2023-05-05T11:15:28.187Z,81.15
2023-05-05T11:17:56.446Z,83.05
2023-05-05T11:20:36.045Z,80.77
2023-05-05T11:23:03.780Z,83.21
2023-05-05T11:25:36.853Z,82.01
2023-05-05T11:28:11.394Z,79.87
2023-05-05T11:30:57.272Z,78.85
2023-05-05T11:33:32.035Z,81.25
2023-05-05T11:36:05.816Z,82.64
2023-05-05T11:38:36.254Z,83.44
2023-05-05T11:41:12.534Z,80.88
2023-05-05T11:43:41.864Z,81.25
2023-05-05T11:46:16.812Z,79.40
2023-05-05T11:48:46.714Z,79.44
2023-05-05T11:51:14.904Z,82.09
2023-05-05T11:53:43.894Z,79.19
2023-05-05T11:56:12.027Z,79.00
2023-05-05T11:58:38.998Z,78.00
2023-05-05T12:01:07.498Z,78.92
2023-05-05T12:03:36.417Z,79.21
2023-05-05T12:06:04.741Z,79.31
2023-05-05T12:08:41.325Z,76.30
2023-05-05T12:11:10.053Z,79.76
2023-05-05T12:13:37.374Z,80.72
2023-05-05T12:16:14.573Z,77.25
2023-05-05T12:18:42.039Z,80.39
2023-05-05T12:21:19.834Z,79.01
2023-05-05T12:23:47.267Z,77.72
2023-05-05T12:26:29.284Z,76.88
2023-05-05T12:29:00.408Z,76.18
2023-05-05T12:31:37.921Z,76.25
2023-05-05T12:34:06.897Z,76.37
2023-05-05T12:36:34.752Z,73.81
2023-05-05T12:39:02.059Z,74.72
2023-05-05T12:41:29.084Z,74.54
2023-05-05T12:43:57.300Z,73.07
2023-05-05T12:46:24.838Z,74.13
2023-05-05T12:49:06.606Z,75.36
2023-05-05T12:51:36.158Z,75.83
2023-05-05T12:54:07.541Z,73.19
2023-05-05T12:56:40.740Z,72.64
2023-05-05T12:59:08.492Z,72.99
2023-05-05T13:02:06.024Z,72.64
2023-05-05T13:04:33.259Z,72.54
2023-05-05T13:07:16.839Z,72.13
2023-05-05T13:09:44.088Z,70.44
2023-05-05T13:12:14.035Z,71.16
2023-05-05T13:14:41.828Z,70.36
2023-05-05T13:17:09.225Z,70.41
2023-05-05T13:19:41.932Z,70.14
2023-05-05T13:22:13.046Z,70.74
2023-05-05T13:27:46.829Z,69.97
2023-05-05T13:30:14.167Z,69.92
2023-05-05T13:32:41.626Z,69.70
2023-05-05T13:35:09.325Z,70.77
2023-05-05T13:37:36.526Z,70.64
2023-05-05T13:40:03.865Z,72.28
2023-05-05T13:42:31.043Z,70.73
2023-05-05T13:44:57.859Z,69.44
2023-05-05T13:47:25.021Z,68.96
2023-05-05T13:49:52.072Z,67.98
2023-05-05T13:52:19.047Z,66.81
2023-05-05T13:54:46.111Z,67.49
2023-05-05T13:57:13.504Z,69.08
2023-05-05T13:59:40.668Z,68.94
2023-05-05T14:02:07.779Z,68.60
2023-05-05T14:04:34.799Z,69.04
2023-05-05T14:07:02.179Z,67.36
2023-05-05T14:09:28.975Z,68.25
2023-05-05T14:11:55.902Z,67.14
2023-05-05T14:14:22.858Z,67.51
2023-05-05T14:16:50.494Z,67.81
2023-05-05T14:19:17.742Z,68.36
2023-05-05T14:21:44.562Z,69.17
2023-05-05T14:24:11.649Z,69.48
2023-05-05T14:26:38.500Z,70.97
2023-05-05T14:29:05.440Z,71.59
2023-05-05T14:35:48.559Z,71.38
2023-05-05T14:38:15.653Z,71.86
2023-05-05T14:40:42.830Z,73.02
2023-05-05T14:43:09.775Z,72.78
2023-05-05T14:45:36.790Z,73.40
2023-05-05T14:48:10.687Z,74.22
2023-05-05T14:50:38.741Z,74.79
2023-05-05T14:53:05.817Z,73.29
2023-05-05T14:55:33.255Z,73.62
2023-05-05T14:58:00.055Z,73.34
2023-05-05T15:00:29.778Z,74.16
2023-05-05T15:02:56.702Z,74.63
2023-05-05T15:05:23.723Z,73.55
2023-05-05T15:07:50.790Z,74.03
2023-05-05T15:10:19.119Z,73.94
2023-05-05T15:12:47.358Z,75.18
2023-05-05T15:15:14.898Z,77.56
2023-05-05T15:17:42.037Z,78.76
2023-05-05T15:20:09.681Z,78.38
2023-05-05T15:22:36.571Z,78.52
2023-05-05T15:25:03.578Z,77.65
2023-05-05T15:27:31.769Z,78.21
2023-05-05T15:29:58.886Z,77.93
2023-05-05T15:32:25.777Z,78.54
2023-05-05T15:34:52.840Z,78.74
2023-05-05T15:37:19.757Z,79.51
2023-05-05T15:39:46.664Z,80.51
2023-05-05T15:42:13.569Z,79.32
2023-05-05T15:44:42.083Z,80.05
2023-05-05T15:47:10.933Z,78.21
2023-05-05T15:49:37.974Z,79.50
2023-05-05T15:52:05.055Z,78.89
2023-05-05T15:54:33.760Z,79.28
2023-05-05T15:57:00.629Z,79.73
2023-05-05T15:59:27.544Z,80.56
2023-05-05T16:01:54.425Z,80.69
2023-05-05T16:04:21.474Z,81.86
2023-05-05T16:06:48.399Z,81.53
2023-05-05T16:09:15.393Z,81.56
2023-05-05T16:11:42.439Z,82.29
2023-05-05T16:14:09.303Z,83.34
2023-05-05T16:16:36.760Z,83.57
2023-05-05T16:19:14.239Z,82.79
2023-05-05T16:21:41.173Z,82.89
2023-05-05T16:24:08.184Z,83.48
2023-05-05T16:26:35.953Z,84.32
2023-05-05T16:29:02.893Z,84.96
2023-05-05T16:31:30.381Z,85.90
2023-05-05T16:33:57.454Z,86.94
2023-05-05T16:36:24.503Z,87.46
2023-05-05T16:38:51.425Z,88.38
2023-05-05T16:41:18.231Z,88.69
2023-05-05T16:43:44.980Z,89.29
2023-05-05T16:46:12.147Z,90.13
2023-05-05T16:48:39.070Z,91.22
2023-05-05T16:51:06.117Z,92.52
2023-05-05T16:53:33.258Z,93.74
2023-05-05T16:56:00.414Z,94.37
2023-05-05T16:58:27.544Z,94.92
2023-05-05T17:00:54.713Z,95.17
2023-05-05T17:03:22.648Z,95.98
2023-05-05T17:05:53.065Z,96.36
2023-05-05T17:08:19.988Z,96.80
2023-05-05T17:10:47.222Z,97.12
2023-05-05T17:13:15.194Z,98.27
2023-05-05T17:15:43.608Z,98.42
2023-05-05T17:18:10.857Z,99.59
2023-05-05T17:20:37.842Z,99.93
2023-05-05T17:23:05.077Z,100.00
2023-05-05T17:25:32.079Z,100.00
2023-05-05T17:27:59.048Z,100.00
2023-05-05T17:30:26.491Z,100.00
2023-05-05T17:32:53.773Z,100.00
2023-05-05T17:35:21.567Z,100.00
2023-05-05T17:37:48.424Z,100.00
2023-05-05T17:40:16.743Z,100.00
2023-05-05T17:42:43.869Z,100.00
2023-05-05T17:45:11.447Z,100.00
2023-05-05T17:47:59.229Z,100.00
2023-05-05T17:50:29.564Z,100.00
2023-05-05T17:53:47.693Z,100.00
2023-05-05T17:56:24.189Z,100.00
2023-05-05T17:58:51.391Z,100.00
2023-05-05T18:01:26.232Z,100.00
2023-05-05T18:03:53.320Z,100.00
2023-05-05T18:06:20.595Z,100.00
2023-05-05T18:08:47.654Z,100.00
2023-05-05T18:11:15.389Z,100.00
2023-05-05T18:13:47.038Z,100.00
2023-05-05T18:16:17.087Z,100.00
2023-05-05T18:18:43.989Z,100.00
2023-05-05T18:21:12.350Z,100.00
2023-05-05T18:23:40.411Z,100.00
2023-05-05T18:26:07.895Z,100.00
2023-05-05T18:28:36.108Z,100.00
2023-05-05T18:31:03.203Z,100.00
2023-05-05T18:33:30.002Z,100.00
2023-05-05T18:35:57.986Z,100.00
2023-05-05T18:38:24.900Z,100.00
2023-05-05T18:40:51.781Z,100.00
2023-05-05T18:43:19.093Z,100.00
2023-05-05T18:45:45.969Z,100.00
2023-05-05T18:48:12.799Z,100.00
2023-05-05T18:50:39.693Z,100.00
2023-05-05T18:53:06.609Z,100.00
2023-05-05T18:55:33.584Z,100.00
2023-05-05T18:58:00.557Z,100.00
2023-05-05T19:00:27.448Z,100.00
2023-05-05T19:02:54.478Z,100.00
2023-05-05T19:05:45.436Z,100.00
2023-05-05T19:08:12.484Z,100.00
2023-05-05T19:10:39.362Z,100.00
2023-05-05T19:13:06.481Z,100.00
2023-05-05T19:15:33.595Z,100.00
2023-05-05T19:18:01.150Z,100.00
2023-05-05T19:20:30.793Z,100.00
2023-05-05T19:23:03.657Z,100.00
2023-05-05T19:25:31.389Z,100.00
2023-05-05T19:27:58.428Z,100.00
2023-05-05T19:30:25.760Z,100.00
2023-05-05T19:32:52.680Z,100.00
2023-05-05T19:35:19.810Z,100.00
2023-05-05T19:37:46.656Z,100.00
2023-05-05T19:40:17.751Z,100.00
2023-05-05T19:42:44.572Z,100.00
2023-05-05T19:45:11.464Z,100.00
2023-05-05T19:47:38.358Z,100.00
2023-05-05T19:50:18.108Z,100.00
2023-05-05T19:52:47.957Z,100.00
2023-05-05T19:55:17.809Z,100.00
2023-05-05T19:57:44.826Z,100.00
2023-05-05T20:00:12.527Z,100.00
2023-05-05T20:02:39.594Z,100.00
2023-05-05T20:05:09.376Z,100.00
2023-05-05T20:07:36.181Z,100.00
2023-05-05T20:13:28.335Z,100.00
2023-05-05T20:15:55.435Z,100.00
2023-05-05T20:18:22.546Z,100.00
2023-05-05T20:20:49.417Z,100.00
2023-05-05T20:23:16.489Z,100.00
2023-05-05T20:25:43.417Z,100.00
2023-05-05T20:28:10.323Z,100.00
2023-05-05T20:30:37.242Z,100.00
2023-05-05T20:33:04.413Z,100.00
2023-05-05T20:35:31.461Z,100.00
2023-05-05T20:37:58.356Z,100.00
2023-05-05T20:40:25.553Z,100.00
2023-05-05T20:42:52.348Z,100.00
2023-05-05T20:45:19.334Z,100.00
2023-05-05T20:47:46.462Z,100.00
2023-05-05T20:50:13.683Z,100.00
2023-05-05T20:52:40.791Z,100.00
2023-05-05T20:55:08.052Z,100.00
2023-05-05T20:57:34.856Z,100.00
2023-05-05T21:00:02.058Z,100.00
2023-05-05T21:02:28.988Z,100.00
2023-05-05T21:05:02.340Z,100.00
2023-05-05T21:07:35.638Z,100.00
2023-05-05T21:10:03.665Z,100.00
2023-05-05T21:12:31.567Z,100.00
2023-05-05T21:14:59.554Z,100.00
2023-05-05T21:17:27.283Z,100.00
2023-05-05T21:19:54.963Z,100.00
2023-05-05T21:22:22.412Z,100.00
2023-05-05T21:24:49.603Z,100.00
2023-05-05T21:27:16.661Z,100.00
2023-05-05T21:29:43.578Z,100.00
2023-05-05T21:32:11.783Z,100.00
2023-05-05T21:34:39.693Z,100.00
2023-05-05T21:37:06.639Z,100.00
2023-05-05T21:39:33.707Z,100.00
2023-05-05T21:42:00.923Z,100.00
2023-05-05T21:44:28.432Z,100.00
2023-05-05T21:46:55.792Z,100.00
2023-05-05T21:49:22.937Z,100.00
2023-05-05T21:51:50.310Z,100.00
2023-05-05T21:54:17.316Z,100.00
2023-05-05T21:56:44.425Z,100.00
2023-05-05T21:59:11.389Z,100.00
2023-05-05T22:01:38.352Z,100.00
2023-05-05T22:04:05.399Z,100.00
2023-05-05T22:06:32.575Z,100.00
2023-05-05T22:08:59.426Z,100.00
2023-05-05T22:11:26.680Z,100.00
2023-05-05T22:13:53.790Z,100.00
2023-05-05T22:16:20.732Z,100.00
2023-05-05T22:18:47.699Z,100.00
2023-05-05T22:21:14.505Z,100.00
2023-05-05T22:23:44.314Z,100.00
2023-05-05T22:26:11.693Z,100.00
2023-05-05T22:28:38.698Z,100.00
2023-05-05T22:31:05.799Z,100.00
2023-05-05T22:33:32.990Z,100.00
2023-05-05T22:35:59.773Z,100.00
2023-05-05T22:38:26.906Z,100.00
2023-05-05T22:40:53.850Z,100.00
2023-05-05T22:43:20.851Z,100.00
2023-05-05T22:45:47.986Z,100.00
2023-05-05T22:48:15.069Z,100.00
2023-05-05T22:50:42.174Z,100.00
2023-05-05T22:53:09.099Z,100.00
2023-05-05T22:55:35.979Z,100.00
2023-05-05T22:58:02.920Z,100.00
2023-05-05T23:00:29.999Z,100.00
2023-05-05T23:02:56.953Z,100.00
2023-05-05T23:05:24.042Z,100.00
2023-05-05T23:07:51.263Z,100.00
2023-05-05T23:10:18.402Z,100.00
2023-05-05T23:12:45.270Z,100.00
2023-05-05T23:15:12.704Z,100.00
2023-05-05T23:17:39.860Z,100.00
2023-05-05T23:20:09.688Z,100.00
2023-05-05T23:22:36.903Z,100.00
2023-05-05T23:25:03.922Z,100.00
2023-05-05T23:27:31.449Z,100.00
2023-05-05T23:29:58.632Z,100.00
2023-05-05T23:32:25.526Z,100.00
2023-05-05T23:34:53.774Z,100.00
2023-05-05T23:37:20.582Z,100.00
2023-05-05T23:39:47.616Z,100.00
2023-05-05T23:42:14.428Z,100.00
2023-05-05T23:44:41.499Z,100.00
2023-05-05T23:47:08.353Z,100.00
2023-05-05T23:49:35.801Z,100.00
2023-05-05T23:52:03.477Z,100.00
2023-05-05T23:54:30.348Z,100.00
2023-05-05T23:56:57.355Z,100.00
2023-05-05T23:59:24.220Z,100.00
